Time;durP1;ratioP1;P1;durP2;ratioP2;P2;SDS_P1;SDS_P2;PMS_P1;PMS_P2;Temp;Humidity;BMP_temperature;BMP_pressure;BME280_temperature;BME280_humidity;BME280_pressure;Samples;Min_cycle;Max_cycle;Signal;HPM_P1;HPM_P2
2022/06/11 00:01:59;;;;;;;4.85;2.83;;;17.60;99.90;;;;;;5052955;28;20032;-45
2022/06/11 00:04:29;;;;;;;11.20;3.85;;;17.50;99.90;;;;;;5051544;28;20116;-46
2022/06/11 00:06:59;;;;;;;7.95;3.30;;;17.50;99.90;;;;;;5052462;28;20021;-47
2022/06/11 00:09:25;;;;;;;5.72;3.58;;;17.40;99.90;;;;;;5053068;28;20091;-47
2022/06/11 00:11:51;;;;;;;4.80;2.70;;;17.40;99.90;;;;;;5052712;28;20400;-48
2022/06/11 00:14:19;;;;;;;5.78;3.00;;;17.30;99.90;;;;;;5053289;28;20025;-48
2022/06/11 00:16:45;;;;;;;5.32;2.92;;;17.30;99.90;;;;;;5052363;28;20025;-41
2022/06/11 00:19:12;;;;;;;4.03;2.97;;;17.30;99.90;;;;;;5052356;28;20021;-44
2022/06/11 00:21:40;;;;;;;3.60;2.60;;;17.30;99.90;;;;;;5052612;28;20071;-44
2022/06/11 00:24:06;;;;;;;3.90;2.80;;;17.30;99.90;;;;;;5052684;28;20100;-47
2022/06/11 00:26:32;;;;;;;5.95;2.95;;;17.30;99.90;;;;;;5052439;28;20033;-48
2022/06/11 00:28:57;;;;;;;4.95;2.90;;;17.30;99.90;;;;;;5052226;28;20052;-44
2022/06/11 00:31:24;;;;;;;11.10;4.18;;;17.30;99.90;;;;;;5052105;28;20108;-44
2022/06/11 00:33:49;;;;;;;6.90;2.97;;;17.30;99.90;;;;;;5052352;28;20405;-44
2022/06/11 00:36:17;;;;;;;8.07;3.20;;;17.20;99.90;;;;;;5052137;28;20017;-44
2022/06/11 00:38:42;;;;;;;9.18;3.00;;;17.30;99.90;;;;;;5051806;28;20401;-44
2022/06/11 00:41:09;;;;;;;7.13;3.58;;;17.30;99.90;;;;;;5052104;28;20029;-46
2022/06/11 00:43:37;;;;;;;8.32;2.85;;;17.30;99.90;;;;;;5052341;28;20032;-50
2022/06/11 00:46:40;;;;;;;6.40;3.28;;;17.20;99.90;;;;;;5052109;28;20029;-48
2022/06/11 00:49:19;;;;;;;8.70;2.88;;;17.10;99.90;;;;;;5051723;28;20028;-44
2022/06/11 00:51:46;;;;;;;5.90;2.85;;;17.10;99.90;;;;;;5052026;28;20025;-46
2022/06/11 00:54:17;;;;;;;3.08;2.78;;;17.00;99.90;;;;;;5051972;28;20397;-44
2022/06/11 00:56:48;;;;;;;13.75;3.25;;;17.00;99.90;;;;;;5051743;28;20021;-45
2022/06/11 00:59:27;;;;;;;5.82;3.45;;;17.00;99.90;;;;;;5051608;28;20104;-45
2022/06/11 01:01:53;;;;;;;6.30;3.50;;;16.90;99.90;;;;;;5051733;28;20451;-45
2022/06/11 01:04:54;;;;;;;6.38;3.30;;;16.90;99.90;;;;;;5051783;28;20104;-44
2022/06/11 01:07:41;;;;;;;5.13;3.28;;;16.90;99.90;;;;;;5051423;28;20066;-48
2022/06/11 01:10:25;;;;;;;8.73;3.55;;;16.90;99.90;;;;;;5051787;28;20044;-45
2022/06/11 01:12:57;;;;;;;4.43;3.15;;;17.00;99.90;;;;;;5051566;28;20028;-44
2022/06/11 01:15:30;;;;;;;7.20;3.47;;;16.90;99.90;;;;;;5050441;28;20036;-48
2022/06/11 01:18:23;;;;;;;5.43;3.45;;;16.90;99.90;;;;;;5050005;28;20128;-50
2022/06/11 01:21:14;;;;;;;7.20;3.22;;;16.90;99.90;;;;;;5052164;28;20473;-44
2022/06/11 01:24:17;;;;;;;4.47;3.75;;;16.80;99.90;;;;;;5051737;28;20600;-44
2022/06/11 01:27:02;;;;;;;6.85;3.20;;;16.80;99.90;;;;;;5051257;28;20418;-46
2022/06/11 01:29:40;;;;;;;5.28;3.17;;;16.70;99.90;;;;;;5050323;28;20112;-44
2022/06/11 01:32:15;;;;;;;5.28;3.00;;;16.60;99.90;;;;;;5051382;28;20404;-47
2022/06/11 01:34:55;;;;;;;5.47;3.25;;;16.60;99.90;;;;;;5051994;28;20488;-46
2022/06/11 01:37:30;;;;;;;6.70;3.90;;;16.50;99.90;;;;;;5050924;28;20186;-47
2022/06/11 01:40:09;;;;;;;3.72;3.05;;;16.50;99.90;;;;;;5050636;28;20108;-44
2022/06/11 01:42:54;;;;;;;10.57;3.20;;;16.50;99.90;;;;;;5051998;28;20021;-46
2022/06/11 01:45:31;;;;;;;5.85;3.40;;;16.40;99.90;;;;;;5054326;28;20119;-45
2022/06/11 01:47:58;;;;;;;5.30;3.58;;;16.40;99.90;;;;;;5055006;28;20051;-46
2022/06/11 01:50:27;;;;;;;6.60;3.63;;;16.40;99.90;;;;;;5055522;28;20036;-46
2022/06/11 01:53:07;;;;;;;5.20;3.45;;;16.30;99.90;;;;;;5055403;28;20075;-44
2022/06/11 01:55:44;;;;;;;5.55;2.90;;;16.30;99.90;;;;;;5055400;28;20025;-47
2022/06/11 01:58:39;;;;;;;4.47;3.45;;;16.30;99.90;;;;;;5054856;28;20035;-47
2022/06/11 02:01:48;;;;;;;11.02;3.60;;;16.20;99.90;;;;;;5055384;28;20044;-47
2022/06/11 02:04:22;;;;;;;10.32;3.70;;;16.20;99.90;;;;;;4993533;28;20029;-46
2022/06/11 02:07:18;;;;;;;11.53;3.40;;;16.10;99.90;;;;;;5049456;28;20306;-43
2022/06/11 02:09:55;;;;;;;9.17;4.27;;;16.00;99.90;;;;;;5055054;28;20283;-46
2022/06/11 02:12:47;;;;;;;5.20;3.83;;;16.00;99.90;;;;;;5054797;28;20263;-47
2022/06/11 02:15:28;;;;;;;7.80;3.33;;;15.90;99.90;;;;;;5051741;28;20071;-44
2022/06/11 02:17:58;;;;;;;10.52;4.20;;;15.90;99.90;;;;;;5054583;28;20025;-45
2022/06/11 02:20:33;;;;;;;7.70;4.18;;;15.90;99.90;;;;;;5055126;28;20143;-44
2022/06/11 02:23:15;;;;;;;6.93;3.65;;;15.90;99.90;;;;;;5054867;28;20025;-46
2022/06/11 02:25:50;;;;;;;9.95;3.90;;;15.90;99.90;;;;;;5054811;28;20029;-48
2022/06/11 02:28:21;;;;;;;7.88;3.20;;;15.90;99.90;;;;;;5054499;28;20023;-43
2022/06/11 02:30:49;;;;;;;6.35;4.07;;;15.80;99.90;;;;;;5054923;28;20036;-46
2022/06/11 02:33:18;;;;;;;10.65;4.28;;;15.80;99.90;;;;;;5054478;28;20029;-45
2022/06/11 02:35:59;;;;;;;6.28;4.03;;;15.80;99.90;;;;;;5054629;28;20040;-44
2022/06/11 02:38:26;;;;;;;6.68;4.90;;;15.90;99.90;;;;;;5054240;28;20082;-44
2022/06/11 02:41:10;;;;;;;9.00;4.60;;;15.90;99.90;;;;;;5054448;28;20033;-48
2022/06/11 02:43:36;;;;;;;8.27;4.22;;;15.90;99.90;;;;;;5054265;28;20032;-44
2022/06/11 02:46:40;;;;;;;6.28;4.40;;;15.90;99.90;;;;;;5054181;28;20029;-44
2022/06/11 02:48:49;;;;;;;3.72;3.42;;;15.90;99.90;;;;;;5053769;28;20033;-45
2022/06/11 02:51:14;;;;;;;5.47;3.67;;;15.90;99.90;;;;;;5054177;28;20431;-45
2022/06/11 02:53:40;;;;;;;8.15;4.18;;;15.90;99.90;;;;;;5053845;28;20036;-44
2022/06/11 02:56:06;;;;;;;6.50;4.13;;;16.00;99.90;;;;;;5054224;28;20111;-44
2022/06/11 02:58:31;;;;;;;6.90;3.75;;;16.00;99.90;;;;;;5053639;28;20052;-45
2022/06/11 03:00:57;;;;;;;9.90;4.35;;;16.00;99.90;;;;;;5054046;28;20550;-45
2022/06/11 03:03:23;;;;;;;8.65;3.83;;;15.90;99.90;;;;;;5053910;28;20021;-46
2022/06/11 03:05:48;;;;;;;9.48;4.10;;;15.90;99.90;;;;;;5053954;28;20033;-45
2022/06/11 03:08:14;;;;;;;5.80;4.05;;;15.90;99.90;;;;;;5053387;28;20405;-43
2022/06/11 03:10:39;;;;;;;4.45;3.97;;;15.80;99.90;;;;;;5053929;28;20033;-45
2022/06/11 03:13:06;;;;;;;5.97;4.50;;;15.80;99.90;;;;;;5053808;28;20032;-47
2022/06/11 03:15:33;;;;;;;7.07;3.92;;;15.80;99.90;;;;;;5052368;28;20029;-44
2022/06/11 03:17:59;;;;;;;4.72;4.20;;;15.80;99.90;;;;;;5053335;28;20025;-44
2022/06/11 03:20:28;;;;;;;13.38;5.25;;;15.70;99.90;;;;;;5052331;28;20032;-47
2022/06/11 03:22:54;;;;;;;11.50;4.95;;;15.80;99.90;;;;;;5053661;28;20424;-44
2022/06/11 03:25:20;;;;;;;9.50;4.43;;;15.70;99.90;;;;;;5053541;28;20412;-45
2022/06/11 03:27:46;;;;;;;13.85;4.57;;;15.80;99.90;;;;;;5053121;28;20032;-43
2022/06/11 03:30:14;;;;;;;6.60;4.53;;;15.70;99.90;;;;;;5053529;28;20115;-45
2022/06/11 03:32:40;;;;;;;10.02;5.05;;;15.70;99.90;;;;;;5053616;28;20108;-45
2022/06/11 03:35:07;;;;;;;8.15;5.13;;;15.70;99.90;;;;;;5053371;28;20570;-43
2022/06/11 03:37:33;;;;;;;10.88;5.15;;;15.80;99.90;;;;;;5052917;28;20033;-43
2022/06/11 03:39:59;;;;;;;5.43;4.60;;;15.80;99.90;;;;;;5053373;28;20032;-45
2022/06/11 03:42:25;;;;;;;7.78;4.55;;;15.80;99.90;;;;;;5053155;28;20025;-49
2022/06/11 03:44:50;;;;;;;9.45;4.65;;;15.90;99.90;;;;;;5053160;28;20486;-44
2022/06/11 03:47:16;;;;;;;4.95;4.03;;;15.90;99.90;;;;;;5052599;28;20044;-41
2022/06/11 03:49:42;;;;;;;7.90;4.50;;;15.90;99.90;;;;;;5053651;28;20121;-44
2022/06/11 03:52:10;;;;;;;7.18;4.40;;;15.90;99.90;;;;;;5053526;28;20064;-43
2022/06/11 03:54:35;;;;;;;8.00;3.90;;;15.90;99.90;;;;;;5053090;28;20025;-44
2022/06/11 03:57:01;;;;;;;7.15;4.03;;;15.90;99.90;;;;;;5052966;28;20025;-43
2022/06/11 03:59:26;;;;;;;7.20;4.07;;;15.90;99.90;;;;;;5052853;28;20037;-44
2022/06/11 04:01:52;;;;;;;4.35;3.95;;;16.00;99.90;;;;;;5045591;28;20072;-45
2022/06/11 04:04:20;;;;;;;7.00;3.88;;;16.00;99.90;;;;;;5046098;28;20029;-45
2022/06/11 04:06:56;;;;;;;4.13;3.70;;;16.00;99.90;;;;;;5050183;28;20547;-41
2022/06/11 04:09:28;;;;;;;4.93;3.63;;;16.00;99.90;;;;;;5044269;28;20037;-43
2022/06/11 04:11:54;;;;;;;8.40;4.15;;;16.10;99.90;;;;;;5033146;28;20052;-44
2022/06/11 04:14:20;;;;;;;5.47;3.80;;;16.20;99.90;;;;;;5035584;28;20037;-44
2022/06/11 04:16:53;;;;;;;8.02;3.58;;;16.20;99.90;;;;;;5052120;28;20553;-41
2022/06/11 04:19:24;;;;;;;4.95;3.70;;;16.20;99.90;;;;;;5050604;28;20044;-42
2022/06/11 04:21:51;;;;;;;6.10;3.45;;;16.30;99.90;;;;;;5044425;28;20027;-43
2022/06/11 04:24:16;;;;;;;5.07;3.72;;;16.30;99.90;;;;;;5050679;28;20022;-44
2022/06/11 04:26:45;;;;;;;7.18;3.22;;;16.30;99.90;;;;;;5051830;28;20029;-44
2022/06/11 04:29:16;;;;;;;6.35;3.90;;;16.40;99.90;;;;;;5051117;28;20024;-43
2022/06/11 04:31:42;;;;;;;9.85;3.47;;;16.40;99.90;;;;;;5047410;28;20497;-42
2022/06/11 04:34:08;;;;;;;6.45;3.42;;;16.40;99.90;;;;;;5033796;28;20523;-43
2022/06/11 04:36:35;;;;;;;3.55;2.83;;;16.50;99.90;;;;;;5033250;28;20033;-44
2022/06/11 04:39:01;;;;;;;7.20;3.85;;;16.50;99.90;;;;;;5035060;28;20499;-44
2022/06/11 04:41:27;;;;;;;10.40;3.42;;;16.60;99.90;;;;;;5038226;28;20041;-50
2022/06/11 04:43:53;;;;;;;5.55;3.42;;;16.70;99.90;;;;;;5051287;28;20084;-44
2022/06/11 04:46:19;;;;;;;6.32;3.65;;;16.70;99.90;;;;;;5044921;28;20038;-43
2022/06/11 04:48:46;;;;;;;6.35;3.88;;;16.70;99.90;;;;;;5031802;28;20033;-43
2022/06/11 04:51:13;;;;;;;3.85;3.13;;;16.80;99.90;;;;;;5031921;28;20060;-45
2022/06/11 04:53:39;;;;;;;9.52;4.50;;;16.80;99.90;;;;;;5032500;28;20053;-43
2022/06/11 04:56:05;;;;;;;10.90;4.13;;;16.90;99.90;;;;;;5048447;28;20059;-47
2022/06/11 04:58:30;;;;;;;7.55;4.15;;;16.90;99.90;;;;;;5036582;28;20033;-45
2022/06/11 05:00:56;;;;;;;10.65;5.65;;;16.90;99.90;;;;;;5041452;28;20553;-48
2022/06/11 05:03:22;;;;;;;8.80;4.18;;;16.80;99.90;;;;;;5049533;28;20033;-46
2022/06/11 05:05:47;;;;;;;5.82;3.80;;;16.90;99.90;;;;;;5040991;28;20575;-42
2022/06/11 05:08:14;;;;;;;7.35;3.63;;;16.90;99.90;;;;;;5040150;28;20100;-49
2022/06/11 05:10:41;;;;;;;11.18;4.22;;;17.00;99.90;;;;;;5045398;28;20024;-46
2022/06/11 05:13:09;;;;;;;9.57;4.50;;;17.10;99.90;;;;;;5038674;28;20034;-46
2022/06/11 05:15:40;;;;;;;9.48;3.15;;;17.10;99.90;;;;;;5036969;28;20140;-43
2022/06/11 05:18:05;;;;;;;6.80;3.85;;;17.20;99.90;;;;;;5038591;28;20017;-45
2022/06/11 05:20:31;;;;;;;6.38;3.35;;;17.40;99.90;;;;;;5042886;28;20029;-44
2022/06/11 05:22:56;;;;;;;10.25;3.92;;;17.40;99.90;;;;;;5049140;28;20035;-44
2022/06/11 05:25:22;;;;;;;7.53;3.17;;;17.70;99.90;;;;;;5052347;28;20021;-44
2022/06/11 05:27:48;;;;;;;6.00;3.05;;;18.60;99.90;;;;;;5049693;28;20078;-46
2022/06/11 05:30:21;;;;;;;7.75;3.35;;;19.70;99.90;;;;;;5047786;28;20029;-46
2022/06/11 05:32:48;;;;;;;5.22;2.90;;;21.20;99.90;;;;;;5051648;28;20032;-44
2022/06/11 05:35:20;;;;;;;7.25;2.72;;;22.60;99.90;;;;;;5038867;28;20033;-45
2022/06/11 05:37:48;;;;;;;7.60;2.95;;;24.00;98.80;;;;;;5031037;28;20443;-47
2022/06/11 05:40:21;;;;;;;7.90;2.47;;;25.50;97.00;;;;;;5030333;28;20497;-45
2022/06/11 05:42:47;;;;;;;3.63;2.13;;;26.70;93.90;;;;;;5032969;28;20039;-44
2022/06/11 05:45:18;;;;;;;4.93;2.47;;;27.80;92.30;;;;;;5039494;28;20021;-44
2022/06/11 05:47:46;;;;;;;9.00;4.10;;;28.80;90.40;;;;;;5073710;23;20052;-45
2022/06/11 05:50:17;;;;;;;4.88;2.20;;;29.60;87.60;;;;;;5073765;28;20112;-47
2022/06/11 05:52:45;;;;;;;6.68;2.17;;;30.20;83.40;;;;;;5064662;28;20025;-44
2022/06/11 05:55:20;;;;;;;5.88;2.20;;;30.30;82.70;;;;;;5058025;28;20033;-43
2022/06/11 05:57:48;;;;;;;10.13;2.80;;;30.80;81.20;;;;;;5061769;28;20025;-46
2022/06/11 06:00:17;;;;;;;8.05;2.40;;;31.50;77.70;;;;;;5052257;28;20074;-47
2022/06/11 06:02:44;;;;;;;7.63;3.05;;;31.70;76.90;;;;;;5052826;28;20373;-46
2022/06/11 06:05:13;;;;;;;9.70;3.40;;;32.00;76.50;;;;;;5049783;28;20025;-48
2022/06/11 06:07:39;;;;;;;7.70;2.50;;;32.50;73.80;;;;;;5034014;28;20079;-43
2022/06/11 06:10:05;;;;;;;5.20;2.28;;;32.40;72.50;;;;;;5034181;28;20037;-45
2022/06/11 06:12:32;;;;;;;9.80;2.65;;;32.10;72.80;;;;;;5038030;28;20413;-47
2022/06/11 06:15:11;;;;;;;6.18;2.30;;;32.50;72.30;;;;;;5041494;28;20109;-47
2022/06/11 06:17:38;;;;;;;6.65;3.17;;;32.20;71.50;;;;;;5061008;28;20035;-48
2022/06/11 06:20:07;;;;;;;7.88;3.10;;;32.10;70.90;;;;;;5072217;28;20025;-48
2022/06/11 06:22:33;;;;;;;11.25;3.20;;;32.90;70.30;;;;;;5050739;28;20050;-52
2022/06/11 06:24:59;;;;;;;6.88;2.55;;;33.40;68.80;;;;;;5033221;28;20024;-49
2022/06/11 06:27:25;;;;;;;6.97;2.42;;;33.00;68.80;;;;;;5036904;28;20030;-47
2022/06/11 06:29:51;;;;;;;9.35;2.83;;;33.30;68.50;;;;;;5063365;28;20077;-46
2022/06/11 06:32:17;;;;;;;4.90;2.10;;;33.10;67.70;;;;;;5076634;28;20029;-47
2022/06/11 06:34:43;;;;;;;4.90;2.33;;;33.10;67.00;;;;;;5056246;28;20030;-47
2022/06/11 06:37:09;;;;;;;4.75;2.03;;;32.70;68.20;;;;;;5055716;28;20036;-46
2022/06/11 06:39:34;;;;;;;4.53;2.22;;;32.90;67.90;;;;;;5056692;28;20029;-46
2022/06/11 06:42:00;;;;;;;4.43;2.08;;;33.30;67.50;;;;;;5057061;28;20459;-46
2022/06/11 06:44:27;;;;;;;6.40;3.03;;;33.40;66.80;;;;;;5057298;28;20392;-49
2022/06/11 06:46:52;;;;;;;5.32;2.75;;;33.50;66.70;;;;;;5058245;28;20025;-44
2022/06/11 06:49:18;;;;;;;6.53;2.30;;;33.70;66.50;;;;;;5048937;28;20539;-46
2022/06/11 06:51:44;;;;;;;6.57;2.58;;;33.70;65.90;;;;;;5056152;28;20082;-47
2022/06/11 06:54:09;;;;;;;6.40;2.58;;;33.80;66.50;;;;;;5057483;28;20044;-48
2022/06/11 06:56:35;;;;;;;5.20;2.80;;;33.60;66.40;;;;;;5057714;28;20036;-46
2022/06/11 06:59:02;;;;;;;12.30;2.63;;;33.90;66.30;;;;;;5053305;28;20036;-48
2022/06/11 07:01:28;;;;;;;4.53;2.17;;;33.70;65.30;;;;;;5054819;28;20021;-45
2022/06/11 07:03:54;;;;;;;8.98;3.47;;;33.70;66.40;;;;;;5050527;28;20038;-45
2022/06/11 07:06:20;;;;;;;3.60;2.20;;;33.80;66.60;;;;;;5074705;28;20017;-46
2022/06/11 07:08:49;;;;;;;7.10;2.40;;;34.00;65.80;;;;;;5068793;28;20075;-46
2022/06/11 07:11:14;;;;;;;7.28;2.55;;;34.50;65.00;;;;;;5054303;28;20511;-46
2022/06/11 07:13:40;;;;;;;5.85;2.13;;;35.10;64.00;;;;;;5054633;28;20040;-46
2022/06/11 07:16:06;;;;;;;7.43;1.90;;;34.70;62.70;;;;;;5056984;28;20029;-46
2022/06/11 07:18:39;;;;;;;4.07;2.03;;;33.70;65.30;;;;;;5056411;28;20037;-46
2022/06/11 07:21:08;;;;;;;4.63;2.17;;;33.10;65.80;;;;;;5039262;28;20086;-48
2022/06/11 07:23:38;;;;;;;5.63;1.90;;;32.60;66.20;;;;;;5038135;28;20029;-45
2022/06/11 07:26:11;;;;;;;7.07;2.33;;;32.80;66.10;;;;;;5038019;28;20381;-46
2022/06/11 07:28:43;;;;;;;9.30;2.35;;;32.50;66.00;;;;;;5056995;28;20033;-48
2022/06/11 07:31:09;;;;;;;9.18;2.50;;;32.10;66.90;;;;;;5053990;28;20090;-49
2022/06/11 07:33:34;;;;;;;9.38;2.20;;;31.30;67.80;;;;;;5079590;28;20040;-49
2022/06/11 07:36:00;;;;;;;12.55;2.78;;;31.20;68.80;;;;;;5071939;28;20103;-47
2022/06/11 07:38:26;;;;;;;8.63;2.45;;;31.40;68.50;;;;;;5057714;28;20028;-49
2022/06/11 07:40:52;;;;;;;5.88;3.10;;;31.30;68.90;;;;;;5056034;28;20064;-44
2022/06/11 07:43:17;;;;;;;5.47;2.63;;;31.40;69.10;;;;;;5057362;28;20036;-45
2022/06/11 07:45:44;;;;;;;7.32;3.45;;;31.60;68.40;;;;;;5057713;28;20108;-46
2022/06/11 07:48:10;;;;;;;10.13;2.50;;;32.20;74.60;;;;;;5058513;28;20052;-45
2022/06/11 07:50:43;;;;;;;26.40;21.30;;;33.20;67.70;;;;;;5058824;28;20480;-45
2022/06/11 07:53:09;;;;;;;44.58;36.33;;;;;;;;;;5059158;28;20484;-48
2022/06/11 07:55:37;;;;;;;7.63;2.88;;;34.50;84.00;;;;;;5052928;28;20034;-49
2022/06/11 07:58:04;;;;;;;8.00;2.30;;;35.20;66.60;;;;;;5067339;28;20045;-48
2022/06/11 08:00:35;;;;;;;6.35;2.33;;;35.80;62.60;;;;;;5076981;28;20028;-47
2022/06/11 08:03:01;;;;;;;11.52;2.15;;;35.70;62.10;;;;;;5056542;28;20117;-49
2022/06/11 08:05:27;;;;;;;3.58;1.95;;;35.60;61.70;;;;;;5052663;28;20466;-49
2022/06/11 08:07:52;;;;;;;9.45;2.70;;;35.90;60.70;;;;;;5074732;28;20025;-45
2022/06/11 08:10:20;;;;;;;4.60;1.77;;;35.70;60.90;;;;;;5038440;28;20029;-48
2022/06/11 08:12:45;;;;;;;6.07;1.52;;;35.70;60.30;;;;;;5049571;28;20032;-46
2022/06/11 08:15:11;;;;;;;8.45;2.28;;;35.70;60.30;;;;;;5056058;28;20040;-51
2022/06/11 08:17:37;;;;;;;6.18;1.90;;;36.10;60.80;;;;;;5069254;28;20067;-47
2022/06/11 08:20:05;;;;;;;9.05;1.90;;;35.80;59.70;;;;;;5056009;28;20091;-50
2022/06/11 08:22:30;;;;;;;8.77;1.88;;;35.80;60.10;;;;;;5057046;28;20021;-47
2022/06/11 08:24:56;;;;;;;7.45;1.85;;;35.30;60.00;;;;;;5057086;28;20021;-46
2022/06/11 08:27:22;;;;;;;3.38;1.73;;;34.70;61.40;;;;;;5056528;28;20554;-51
2022/06/11 08:29:47;;;;;;;6.75;2.15;;;34.30;61.50;;;;;;5056240;28;20123;-47
2022/06/11 08:32:13;;;;;;;9.45;2.08;;;33.70;62.70;;;;;;5052384;28;20024;-48
2022/06/11 08:34:40;;;;;;;7.78;1.77;;;32.90;63.00;;;;;;5047659;28;20033;-47
2022/06/11 08:37:06;;;;;;;9.98;1.70;;;32.60;63.40;;;;;;5062032;28;20035;-47
2022/06/11 08:39:32;;;;;;;4.85;1.48;;;32.50;64.40;;;;;;5069140;28;20033;-48
2022/06/11 08:41:59;;;;;;;9.45;2.10;;;32.20;65.50;;;;;;5068719;28;20021;-49
2022/06/11 08:44:26;;;;;;;8.50;2.03;;;32.10;64.90;;;;;;5071895;28;20441;-49
2022/06/11 08:46:52;;;;;;;5.10;2.03;;;32.10;65.70;;;;;;5055982;28;20025;-46
2022/06/11 08:49:23;;;;;;;6.10;2.03;;;32.00;65.70;;;;;;5051391;28;20182;-48
2022/06/11 08:52:12;;;;;;;5.57;1.60;;;31.70;66.00;;;;;;5049813;28;20085;-47
2022/06/11 08:54:44;;;;;;;8.32;1.60;;;31.30;65.60;;;;;;5030533;28;20444;-46
2022/06/11 08:57:26;;;;;;;4.18;1.55;;;30.90;66.50;;;;;;5031361;28;20068;-48
2022/06/11 09:00:18;;;;;;;17.63;10.05;;;30.30;68.60;;;;;;5032641;28;20028;-48
2022/06/11 09:03:14;;;;;;;10.70;6.00;;;30.10;70.20;;;;;;5059913;28;20020;-45
2022/06/11 09:06:14;;;;;;;6.38;2.00;;;30.10;70.10;;;;;;5061703;28;20112;-48
2022/06/11 09:08:50;;;;;;;8.07;2.58;;;30.30;70.70;;;;;;5067383;28;20029;-49
2022/06/11 09:11:52;;;;;;;4.28;1.35;;;30.00;70.40;;;;;;5069066;28;20031;-50
2022/06/11 09:14:22;;;;;;;4.88;1.52;;;29.80;70.10;;;;;;5051127;28;20036;-53
2022/06/11 09:17:22;;;;;;;4.80;1.15;;;29.70;70.50;;;;;;5046097;28;20033;-49
2022/06/11 09:20:10;;;;;;;5.90;1.17;;;29.40;69.60;;;;;;5072023;28;20033;-47
2022/06/11 09:23:31;;;;;;;15.30;1.67;;;29.30;69.00;;;;;;5057855;28;20090;-48
2022/06/11 09:26:28;;;;;;;8.75;1.50;;;29.50;69.70;;;;;;5028831;28;20072;-48
2022/06/11 09:28:59;;;;;;;5.60;1.30;;;29.50;68.10;;;;;;5051490;28;20112;-47
2022/06/11 09:31:37;;;;;;;7.43;1.30;;;29.40;68.00;;;;;;5052204;28;20496;-48
2022/06/11 09:34:19;;;;;;;3.83;1.63;;;29.10;66.60;;;;;;5048231;28;20401;-51
2022/06/11 09:37:07;;;;;;;3.53;1.30;;;29.10;68.80;;;;;;5044238;28;20032;-51
2022/06/11 09:39:40;;;;;;;3.63;1.55;;;28.90;68.60;;;;;;5043060;28;20029;-49
2022/06/11 09:42:35;;;;;;;4.63;1.58;;;28.60;68.30;;;;;;5051456;28;20024;-48
2022/06/11 09:45:04;;;;;;;;;;;28.40;70.40;;;;;;5047777;28;20021;-46
2022/06/11 09:47:34;;;;;;;7.05;1.20;;;28.30;69.00;;;;;;5051025;28;19913;-48
2022/06/11 09:50:23;;;;;;;3.78;0.90;;;28.00;71.00;;;;;;5057971;28;20016;-48
2022/06/11 09:53:32;;;;;;;3.42;1.23;;;27.90;71.20;;;;;;5067941;28;20130;-45
2022/06/11 09:56:08;;;;;;;4.75;0.82;;;27.80;70.10;;;;;;5049018;28;20041;-48
2022/06/11 09:58:56;;;;;;;2.08;0.93;;;27.80;69.90;;;;;;5049900;28;20033;-45
2022/06/11 10:01:31;;;;;;;6.30;1.10;;;27.70;69.20;;;;;;5051705;28;20021;-52
2022/06/11 10:04:09;;;;;;;2.83;0.60;;;27.60;68.20;;;;;;5033453;28;20033;-47
2022/06/11 10:06:44;;;;;;;4.65;1.10;;;27.50;68.60;;;;;;5035392;28;20055;-51
2022/06/11 10:09:41;;;;;;;2.35;1.23;;;27.50;66.50;;;;;;5040093;28;20094;-46
2022/06/11 10:12:19;;;;;;;31.08;22.02;;;27.40;67.00;;;;;;5051953;28;20037;-47
2022/06/11 10:15:19;;;;;;;9.35;3.50;;;27.40;67.10;;;;;;5056186;28;20454;-48
2022/06/11 10:17:53;;;;;;;3.63;0.93;;;27.30;67.60;;;;;;5014920;28;20307;-49
2022/06/11 10:20:32;;;;;;;1.47;0.60;;;27.10;68.90;;;;;;5071189;28;20025;-49
2022/06/11 10:23:04;;;;;;;3.08;1.15;;;27.20;69.30;;;;;;5065395;28;20108;-45
2022/06/11 10:25:37;;;;;;;3.42;1.10;;;27.30;68.20;;;;;;5052357;28;20022;-48
2022/06/11 10:28:15;;;;;;;2.38;0.90;;;27.40;68.50;;;;;;5054613;28;20090;-50
2022/06/11 10:30:45;;;;;;;2.30;0.90;;;27.50;70.10;;;;;;5058109;28;20055;-45
2022/06/11 10:33:19;;;;;;;4.30;0.95;;;27.50;67.80;;;;;;5058062;28;20112;-45
2022/06/11 10:35:53;;;;;;;4.00;1.20;;;27.40;69.40;;;;;;5058443;28;20029;-45
2022/06/11 10:38:35;;;;;;;4.43;1.48;;;27.40;69.30;;;;;;5057537;28;20036;-46
2022/06/11 10:41:04;;;;;;;3.88;1.73;;;27.30;70.70;;;;;;5057496;28;20435;-48
2022/06/11 10:43:44;;;;;;;1.92;1.10;;;27.20;70.70;;;;;;5057876;28;20013;-48
2022/06/11 10:46:11;;;;;;;15.60;6.75;;;27.10;70.30;;;;;;5057541;28;20021;-44
2022/06/11 10:48:37;;;;;;;1.98;1.20;;;27.20;70.60;;;;;;5056837;28;20033;-46
2022/06/11 10:51:12;;;;;;;5.40;1.35;;;27.30;70.30;;;;;;5057609;28;20078;-47
2022/06/11 10:53:55;;;;;;;4.18;1.67;;;27.30;71.30;;;;;;5057233;28;20033;-48
2022/06/11 10:56:36;;;;;;;5.13;1.90;;;27.30;70.80;;;;;;5058316;28;20476;-47
2022/06/11 10:59:06;;;;;;;2.53;1.27;;;27.40;68.70;;;;;;5056686;28;20036;-46
2022/06/11 11:01:43;;;;;;;3.53;1.13;;;27.20;68.90;;;;;;5057245;28;20108;-46
2022/06/11 11:04:25;;;;;;;4.65;1.23;;;26.90;68.80;;;;;;5057567;28;20215;-46
2022/06/11 11:07:13;;;;;;;5.95;2.00;;;26.70;70.70;;;;;;5057340;28;20017;-44
2022/06/11 11:09:39;;;;;;;5.03;1.30;;;26.70;70.20;;;;;;5056855;28;20028;-46
2022/06/11 11:12:07;;;;;;;6.30;1.70;;;26.60;71.50;;;;;;5057629;28;20409;-46
2022/06/11 11:14:39;;;;;;;4.53;1.65;;;26.80;72.90;;;;;;5057592;28;20092;-47
2022/06/11 11:17:15;;;;;;;4.10;1.98;;;26.80;71.70;;;;;;5056438;28;20489;-46
2022/06/11 11:19:45;;;;;;;2.10;1.25;;;26.90;71.00;;;;;;5056163;28;20388;-46
2022/06/11 11:22:17;;;;;;;1.60;1.10;;;26.90;71.70;;;;;;5057200;28;20028;-49
2022/06/11 11:24:48;;;;;;;5.30;1.67;;;27.00;72.20;;;;;;5057339;28;20480;-46
2022/06/11 11:27:16;;;;;;;3.40;1.00;;;27.10;71.80;;;;;;5056071;28;20032;-48
2022/06/11 11:29:56;;;;;;;6.18;1.30;;;27.00;70.40;;;;;;5055997;28;20032;-51
2022/06/11 11:32:33;;;;;;;4.40;1.50;;;26.90;69.70;;;;;;5055804;28;20032;-47
2022/06/11 11:35:28;;;;;;;3.85;1.67;;;26.80;68.80;;;;;;5055342;28;20427;-49
2022/06/11 11:38:11;;;;;;;1.33;1.15;;;26.80;70.90;;;;;;5056076;28;20036;-47
2022/06/11 11:40:56;;;;;;;11.48;8.95;;;27.00;71.00;;;;;;5055477;28;20028;-48
2022/06/11 11:43:23;;;;;;;2.53;1.38;;;27.00;69.30;;;;;;5056272;28;20028;-49
2022/06/11 11:46:01;;;;;;;1.33;0.90;;;27.20;70.00;;;;;;5055170;28;20052;-46
2022/06/11 11:48:31;;;;;;;4.18;1.30;;;27.20;69.80;;;;;;5055510;28;20145;-49
2022/06/11 11:51:05;;;;;;;2.55;1.48;;;27.20;68.80;;;;;;5056878;28;20136;-47
2022/06/11 11:53:43;;;;;;;4.25;1.77;;;27.10;69.90;;;;;;5057345;28;20028;-47
2022/06/11 11:56:24;;;;;;;1.65;0.88;;;27.10;70.00;;;;;;5057275;28;20029;-47
2022/06/11 11:59:14;;;;;;;3.60;0.93;;;26.90;69.10;;;;;;5056595;28;20515;-48
2022/06/11 12:01:41;;;;;;;4.82;1.10;;;26.90;71.30;;;;;;5048392;28;20041;-49
2022/06/11 12:04:17;;;;;;;2.53;1.70;;;27.10;71.30;;;;;;5056893;28;20400;-47
2022/06/11 12:06:52;;;;;;;3.25;1.20;;;27.20;70.20;;;;;;5057275;28;20064;-49
2022/06/11 12:09:25;;;;;;;3.97;1.25;;;27.20;70.60;;;;;;5056631;28;20037;-47
2022/06/11 12:11:59;;;;;;;4.07;1.65;;;27.10;71.00;;;;;;5057689;28;20024;-47
2022/06/11 12:14:37;;;;;;;5.18;0.98;;;27.00;69.50;;;;;;5056788;28;20025;-47
2022/06/11 12:17:35;;;;;;;1.77;1.00;;;26.90;70.00;;;;;;5056859;28;20404;-51
2022/06/11 12:20:07;;;;;;;1.90;0.90;;;26.90;71.30;;;;;;5057627;28;20086;-50
2022/06/11 12:22:58;;;;;;;3.42;1.23;;;26.90;69.80;;;;;;5058064;28;20032;-51
2022/06/11 12:25:45;;;;;;;5.32;1.15;;;27.10;72.80;;;;;;5058532;28;20108;-51
2022/06/11 12:28:14;;;;;;;7.75;1.75;;;27.20;70.80;;;;;;5055494;28;20025;-47
2022/06/11 12:30:40;;;;;;;3.50;1.08;;;27.30;70.80;;;;;;5055285;28;20112;-47
2022/06/11 12:33:11;;;;;;;4.20;1.35;;;27.20;70.90;;;;;;5055702;28;20149;-50
2022/06/11 12:35:59;;;;;;;3.08;1.15;;;27.40;71.10;;;;;;5055851;28;20099;-50
2022/06/11 12:38:38;;;;;;;3.67;1.40;;;27.40;69.50;;;;;;5054932;28;20091;-49
2022/06/11 12:41:14;;;;;;;2.78;1.00;;;27.30;70.50;;;;;;5056364;28;20064;-51
2022/06/11 12:44:15;;;;;;;4.95;1.15;;;27.20;70.50;;;;;;5056614;28;20515;-51
2022/06/11 12:46:46;;;;;;;4.13;1.15;;;27.10;68.90;;;;;;5022615;28;20040;-46
2022/06/11 12:49:20;;;;;;;2.28;0.88;;;27.00;70.70;;;;;;5055159;28;20090;-49
2022/06/11 12:52:25;;;;;;;3.95;1.25;;;27.00;70.10;;;;;;5054911;28;20492;-48
2022/06/11 12:55:00;;;;;;;;;;;27.00;68.80;;;;;;5055056;28;20028;-46
2022/06/11 12:57:41;;;;;;;1.63;0.80;;;27.00;69.80;;;;;;5053589;28;19906;-48
2022/06/11 13:00:27;;;;;;;8.60;7.60;;;27.10;71.40;;;;;;5054717;28;20052;-47
2022/06/11 13:03:26;;;;;;;11.52;9.32;;;27.20;71.60;;;;;;5053866;28;20021;-50
2022/06/11 13:06:29;;;;;;;6.38;3.50;;;27.30;70.10;;;;;;5054293;28;20013;-51
2022/06/11 13:09:19;;;;;;;5.72;1.35;;;27.40;70.20;;;;;;5051683;28;20024;-50
2022/06/11 13:11:57;;;;;;;1.88;1.10;;;27.30;70.60;;;;;;5051865;28;20027;-51
2022/06/11 13:14:46;;;;;;;4.72;1.30;;;27.40;71.20;;;;;;5052097;28;20036;-47
2022/06/11 13:17:49;;;;;;;6.03;1.73;;;27.50;70.10;;;;;;5052681;28;20029;-48